Time;durP1;ratioP1;P1;durP2;ratioP2;P2;SDS_P1;SDS_P2;PMS_P1;PMS_P2;Temp;Humidity;BMP_temperature;BMP_pressure;BME280_temperature;BME280_humidity;BME280_pressure;Samples;Min_cycle;Max_cycle;Signal;HPM_P1;HPM_P2
2022/08/28 00:00:16;;;;;;;7.57;2.90;;;27.60;49.80;;;;;;21014870;28;20544;-58
2022/08/28 00:10:20;;;;;;;6.35;2.80;;;27.60;50.30;;;;;;21022601;28;20048;-58
2022/08/28 00:20:24;;;;;;;5.15;3.05;;;27.50;50.70;;;;;;21020537;28;20055;-59
2022/08/28 00:30:30;;;;;;;5.35;3.28;;;27.40;51.00;;;;;;21021330;28;20075;-58
2022/08/28 00:40:32;;;;;;;4.63;3.00;;;27.30;51.30;;;;;;21019951;28;20056;-57
2022/08/28 01:00:55;;;;;;;7.13;2.70;;;27.20;51.50;;;;;;21020367;28;20083;-59
2022/08/28 01:11:00;;;;;;;5.15;3.50;;;27.20;51.70;;;;;;21011306;28;20048;-57
2022/08/28 01:21:48;;;;;;;5.70;3.00;;;27.10;51.90;;;;;;21005192;28;20059;-57
2022/08/28 01:31:52;;;;;;;5.72;3.38;;;27.10;51.70;;;;;;20913028;28;20053;-57
2022/08/28 01:41:59;;;;;;;8.88;3.40;;;27.00;52.20;;;;;;20912053;28;20149;-58
2022/08/28 01:52:04;;;;;;;6.35;3.65;;;27.00;52.40;;;;;;20911498;28;20131;-58
2022/08/28 02:02:10;;;;;;;7.03;3.17;;;26.90;53.00;;;;;;20930989;28;20044;-60
2022/08/28 02:12:16;;;;;;;7.10;3.80;;;26.60;53.40;;;;;;21000246;28;20084;-58
2022/08/28 02:22:26;;;;;;;4.30;3.40;;;26.50;53.90;;;;;;21000214;28;20086;-58
2022/08/28 02:32:34;;;;;;;6.65;3.97;;;26.40;53.30;;;;;;21000133;28;20084;-59
2022/08/28 02:42:41;;;;;;;5.97;3.13;;;26.40;52.10;;;;;;20999224;28;20044;-58
2022/08/28 02:52:47;;;;;;;6.88;3.53;;;26.20;51.10;;;;;;20998263;28;20542;-57
2022/08/28 03:02:54;;;;;;;5.45;3.28;;;26.10;49.80;;;;;;20997060;28;20052;-58
2022/08/28 03:12:59;;;;;;;7.90;3.30;;;26.00;50.00;;;;;;20997678;28;20059;-58
2022/08/28 03:33:25;;;;;;;5.60;3.13;;;25.80;50.10;;;;;;20995150;28;20063;-58
2022/08/28 03:43:27;;;;;;;3.67;3.00;;;25.70;50.30;;;;;;20995537;28;20492;-58
2022/08/28 03:53:29;;;;;;;4.47;2.92;;;25.70;50.70;;;;;;20995677;28;20425;-58
2022/08/28 04:03:32;;;;;;;5.70;3.40;;;25.60;50.40;;;;;;20994198;28;20040;-58
2022/08/28 04:13:34;;;;;;;7.15;3.00;;;25.50;50.00;;;;;;20993925;28;20132;-57
2022/08/28 04:23:39;;;;;;;5.00;3.35;;;25.40;48.50;;;;;;20993492;28;20041;-58
2022/08/28 04:33:41;;;;;;;5.93;3.10;;;25.40;47.20;;;;;;20991868;28;20084;-58
2022/08/28 04:43:43;;;;;;;6.40;3.30;;;25.20;47.30;;;;;;20998226;28;20082;-58
2022/08/28 04:53:45;;;;;;;7.33;2.97;;;25.10;46.70;;;;;;21008313;28;20060;-58
2022/08/28 05:03:47;;;;;;;7.93;5.03;;;25.00;46.70;;;;;;21007011;28;20044;-58
2022/08/28 05:13:51;;;;;;;5.80;3.83;;;24.90;47.10;;;;;;21007028;28;20056;-58
2022/08/28 05:23:56;;;;;;;5.03;3.30;;;24.90;47.40;;;;;;21005171;28;20052;-58
2022/08/28 05:33:59;;;;;;;6.63;3.20;;;24.70;47.70;;;;;;21005489;28;20106;-57
2022/08/28 05:44:04;;;;;;;5.13;3.50;;;24.70;48.20;;;;;;21005187;28;20420;-55
2022/08/28 05:54:08;;;;;;;5.70;3.92;;;24.60;48.70;;;;;;21003054;28;20060;-59
2022/08/28 06:04:13;;;;;;;6.63;3.40;;;24.60;49.70;;;;;;21001988;28;20048;-58
2022/08/28 06:14:18;;;;;;;4.30;3.60;;;24.60;50.10;;;;;;21001555;28;20048;-57
2022/08/28 06:24:20;;;;;;;10.45;4.47;;;24.70;50.30;;;;;;21000627;28;20048;-57
2022/08/28 06:34:22;;;;;;;7.50;3.65;;;24.70;50.50;;;;;;21000397;28;20052;-58
2022/08/28 06:44:23;;;;;;;5.47;3.33;;;24.70;51.00;;;;;;20998244;28;20061;-58
2022/08/28 06:54:26;;;;;;;7.78;3.95;;;24.80;51.20;;;;;;20996651;28;20052;-59
2022/08/28 07:04:27;;;;;;;7.07;3.90;;;24.90;51.30;;;;;;20996881;28;20059;-56
2022/08/28 07:14:29;;;;;;;5.28;3.58;;;24.90;51.30;;;;;;20996912;28;20052;-57
2022/08/28 07:24:31;;;;;;;4.93;3.72;;;25.20;50.80;;;;;;20995729;28;20401;-57
2022/08/28 07:34:37;;;;;;;9.00;3.83;;;25.50;50.20;;;;;;20995156;28;20084;-59
2022/08/28 07:44:49;;;;;;;4.75;3.60;;;25.60;49.90;;;;;;20994602;28;20056;-58
2022/08/28 07:54:51;;;;;;;6.10;2.77;;;25.90;49.90;;;;;;20993960;28;20048;-58
2022/08/28 08:04:53;;;;;;;;;;;26.20;49.40;;;;;;20994850;28;20049;-58
2022/08/28 08:14:55;;;;;;;4.30;2.95;;;26.60;48.20;;;;;;20994675;28;20331;-57
2022/08/28 08:24:57;;;;;;;6.72;2.88;;;26.70;47.80;;;;;;21010788;28;20045;-58
2022/08/28 08:34:59;;;;;;;4.60;3.20;;;27.10;47.10;;;;;;21008932;28;20059;-58
2022/08/28 08:45:03;;;;;;;5.22;3.03;;;27.20;46.80;;;;;;21008186;28;20500;-57
2022/08/28 08:55:17;;;;;;;7.68;3.17;;;27.40;46.30;;;;;;21007334;28;20408;-58
2022/08/28 09:05:24;;;;;;;4.90;3.00;;;27.30;46.40;;;;;;21006368;28;20056;-57
2022/08/28 09:15:34;;;;;;;5.68;3.13;;;27.50;46.10;;;;;;21005247;28;20128;-57
2022/08/28 09:25:53;;;;;;;5.05;2.88;;;27.70;45.40;;;;;;21005852;28;20404;-59
2022/08/28 09:35:55;;;;;;;6.38;3.38;;;27.90;45.50;;;;;;21003186;28;20180;-58
2022/08/28 09:46:01;;;;;;;8.85;3.38;;;28.10;44.70;;;;;;21003455;28;20095;-56
2022/08/28 09:56:32;;;;;;;6.53;5.80;;;28.20;44.30;;;;;;21003435;28;20450;-57
2022/08/28 10:06:35;;;;;;;5.68;2.90;;;28.20;44.20;;;;;;20998137;28;20130;-58
2022/08/28 10:16:51;;;;;;;6.30;3.38;;;28.30;44.20;;;;;;21000497;28;20048;-58
2022/08/28 10:27:26;;;;;;;8.23;2.90;;;28.70;43.70;;;;;;21000145;28;20049;-57
2022/08/28 10:37:53;;;;;;;7.88;2.60;;;29.00;42.10;;;;;;20998949;28;20048;-58
2022/08/28 10:47:59;;;;;;;4.43;2.30;;;29.20;41.90;;;;;;20998182;28;20052;-57
2022/08/28 10:58:06;;;;;;;4.50;2.50;;;29.40;40.30;;;;;;20994522;28;20057;-58
2022/08/28 11:08:18;;;;;;;5.22;2.97;;;29.60;40.30;;;;;;20981575;28;20051;-57
2022/08/28 11:18:58;;;;;;;6.57;3.03;;;29.90;40.30;;;;;;20993007;28;20343;-57
2022/08/28 11:29:02;;;;;;;5.17;2.70;;;30.20;40.30;;;;;;20902856;28;20497;-57
2022/08/28 11:39:12;;;;;;;5.85;2.65;;;30.50;38.70;;;;;;20903225;28;20088;-58
2022/08/28 11:49:25;;;;;;;4.47;3.05;;;30.70;38.20;;;;;;20902134;28;20049;-57
2022/08/28 11:59:42;;;;;;;5.82;2.53;;;30.90;37.70;;;;;;20909128;28;20508;-58
2022/08/28 12:09:46;;;;;;;4.93;2.28;;;31.00;37.60;;;;;;20911141;28;20417;-57
2022/08/28 12:19:57;;;;;;;4.50;2.00;;;31.40;34.60;;;;;;20911737;28;20507;-58
2022/08/28 12:30:00;;;;;;;3.08;2.08;;;31.70;33.70;;;;;;20911715;28;20052;-58
2022/08/28 12:40:48;;;;;;;4.38;2.42;;;31.80;33.10;;;;;;20909644;28;20084;-57
2022/08/28 12:51:10;;;;;;;6.43;2.33;;;32.10;31.90;;;;;;20905493;28;20059;-58
2022/08/28 13:01:13;;;;;;;5.88;2.25;;;32.10;31.80;;;;;;20908743;28;20052;-55
2022/08/28 13:11:19;;;;;;;4.28;2.30;;;32.30;30.80;;;;;;20923931;28;20489;-57
2022/08/28 13:21:28;;;;;;;2.30;1.63;;;32.40;30.00;;;;;;20922984;28;20095;-58
2022/08/28 13:31:34;;;;;;;5.32;2.10;;;32.60;26.50;;;;;;20922391;28;20453;-60
2022/08/28 13:41:36;;;;;;;7.68;2.35;;;32.70;29.20;;;;;;20921087;28;20053;-60
2022/08/28 13:51:39;;;;;;;3.47;1.83;;;32.80;30.60;;;;;;20920657;28;20084;-58
2022/08/28 14:12:03;;;;;;;4.40;2.03;;;33.20;29.40;;;;;;20920210;28;20052;-60
2022/08/28 14:22:04;;;;;;;4.90;2.50;;;33.30;28.80;;;;;;20918756;28;20048;-58
2022/08/28 14:32:06;;;;;;;4.63;2.05;;;33.50;28.50;;;;;;20917543;28;20135;-58
2022/08/28 14:42:08;;;;;;;5.55;2.38;;;33.70;28.80;;;;;;20916310;28;20045;-59
2022/08/28 14:52:09;;;;;;;3.60;1.88;;;33.90;28.30;;;;;;20915533;28;20056;-58
2022/08/28 15:02:12;;;;;;;4.13;1.70;;;33.80;27.50;;;;;;20915373;28;20052;-59
2022/08/28 15:12:14;;;;;;;2.92;1.60;;;33.70;27.10;;;;;;20914222;28;20484;-57
2022/08/28 15:22:15;;;;;;;3.90;1.80;;;33.70;27.30;;;;;;20913565;28;20390;-57
2022/08/28 15:32:17;;;;;;;4.32;1.58;;;33.80;26.10;;;;;;20911530;28;20088;-57
2022/08/28 15:42:19;;;;;;;6.15;2.40;;;33.90;25.70;;;;;;20912864;28;20439;-57
2022/08/28 15:52:20;;;;;;;7.57;1.92;;;34.00;25.40;;;;;;20912696;28;20053;-56
2022/08/28 16:02:23;;;;;;;2.72;1.60;;;34.10;25.20;;;;;;20912517;28;20053;-58
2022/08/28 16:12:25;;;;;;;3.88;1.88;;;33.90;25.70;;;;;;20911607;28;20107;-58
2022/08/28 16:22:27;;;;;;;4.78;1.70;;;33.90;26.00;;;;;;20910733;28;20045;-59
2022/08/28 16:32:29;;;;;;;5.18;2.00;;;33.80;26.20;;;;;;20910070;28;20056;-59
2022/08/28 16:42:30;;;;;;;7.25;3.10;;;33.80;27.20;;;;;;20920986;28;20484;-59
2022/08/28 16:52:32;;;;;;;6.63;2.20;;;33.60;27.60;;;;;;20926030;28;20076;-59
2022/08/28 17:02:33;;;;;;;4.82;2.05;;;33.50;27.90;;;;;;20924941;28;20128;-58
2022/08/28 17:12:35;;;;;;;7.00;2.00;;;33.60;28.10;;;;;;20924227;28;20053;-58
2022/08/28 17:22:39;;;;;;;7.80;1.70;;;33.50;28.40;;;;;;20923839;28;20045;-59
2022/08/28 17:32:40;;;;;;;4.80;2.40;;;33.50;28.60;;;;;;20922593;28;20056;-59
2022/08/28 17:42:44;;;;;;;6.75;2.00;;;33.40;29.00;;;;;;20921971;28;20473;-59
2022/08/28 17:52:46;;;;;;;7.45;2.83;;;33.30;29.30;;;;;;20919839;28;20053;-56
2022/08/28 18:02:50;;;;;;;10.23;2.83;;;33.20;29.30;;;;;;20919521;28;20520;-59
2022/08/28 18:12:52;;;;;;;6.03;2.33;;;33.20;29.20;;;;;;20919126;28;20379;-61
2022/08/28 18:22:54;;;;;;;11.50;2.70;;;33.10;29.40;;;;;;20917997;28;20049;-57
2022/08/28 18:32:56;;;;;;;13.82;2.85;;;33.00;29.40;;;;;;20917202;28;20456;-58
2022/08/28 18:42:58;;;;;;;10.57;3.35;;;32.80;29.10;;;;;;20916111;28;20562;-59
2022/08/28 18:53:00;;;;;;;11.15;3.03;;;32.60;29.10;;;;;;20915598;28;20049;-59
2022/08/28 19:03:02;;;;;;;8.48;4.13;;;32.50;29.00;;;;;;20914235;28;20044;-61
2022/08/28 19:13:04;;;;;;;8.48;3.30;;;32.30;29.30;;;;;;20914988;28;20048;-57
2022/08/28 19:23:08;;;;;;;10.82;4.78;;;32.20;29.60;;;;;;20913830;28;20091;-59
2022/08/28 19:33:11;;;;;;;6.63;3.10;;;32.10;30.00;;;;;;20912504;28;20057;-59
2022/08/28 19:43:13;;;;;;;12.73;3.15;;;32.00;30.40;;;;;;20912128;28;20052;-59
2022/08/28 19:53:15;;;;;;;7.47;3.35;;;31.80;30.70;;;;;;20911375;28;20053;-58
2022/08/28 20:03:19;;;;;;;9.45;3.60;;;31.60;31.30;;;;;;20910977;28;20049;-56
2022/08/28 20:13:20;;;;;;;9.32;3.40;;;31.50;31.70;;;;;;20915726;28;20056;-60
2022/08/28 20:23:22;;;;;;;8.65;2.58;;;31.30;32.10;;;;;;20928311;28;20381;-61
2022/08/28 20:33:24;;;;;;;6.80;3.13;;;31.20;32.50;;;;;;20927707;28;20106;-62
2022/08/28 20:43:26;;;;;;;8.10;2.35;;;31.10;32.90;;;;;;20924964;28;20413;-62
2022/08/28 20:53:28;;;;;;;8.18;2.70;;;30.90;33.20;;;;;;20926210;28;20049;-59
2022/08/28 21:03:29;;;;;;;7.88;3.30;;;30.80;33.90;;;;;;20924854;28;20045;-58
2022/08/28 21:13:31;;;;;;;5.32;2.20;;;30.60;34.60;;;;;;20923888;28;20550;-60
2022/08/28 21:23:34;;;;;;;9.23;2.50;;;30.50;35.40;;;;;;20922922;28;20053;-59
2022/08/28 21:33:36;;;;;;;5.03;2.10;;;30.30;36.00;;;;;;20920800;28;20057;-61
2022/08/28 21:43:39;;;;;;;5.03;1.70;;;30.20;36.70;;;;;;20921900;28;20103;-58
2022/08/28 21:53:41;;;;;;;4.97;2.13;;;30.00;37.20;;;;;;20919771;28;20407;-59
2022/08/28 22:03:43;;;;;;;6.50;1.98;;;29.90;37.70;;;;;;20921427;28;20045;-61
2022/08/28 22:13:45;;;;;;;5.65;2.22;;;29.70;38.00;;;;;;20920803;28;20052;-61
2022/08/28 22:23:47;;;;;;;4.95;2.20;;;29.70;38.50;;;;;;20918214;28;20080;-61
2022/08/28 22:33:49;;;;;;;9.63;2.30;;;29.60;39.20;;;;;;20917244;28;20049;-59
2022/08/28 22:43:51;;;;;;;7.38;1.67;;;29.50;39.70;;;;;;20918262;28;20136;-58
2022/08/28 22:53:53;;;;;;;3.47;1.88;;;29.30;40.20;;;;;;20918841;28;20458;-60
2022/08/28 23:03:54;;;;;;;6.80;2.25;;;29.10;40.80;;;;;;20917414;28;20056;-61
2022/08/28 23:13:56;;;;;;;6.32;2.08;;;29.00;41.20;;;;;;20916319;28;20084;-57
2022/08/28 23:23:57;;;;;;;5.30;2.15;;;29.00;41.50;;;;;;20914057;28;20143;-57
2022/08/28 23:33:59;;;;;;;7.03;2.20;;;28.80;42.30;;;;;;20915692;28;20056;-59
2022/08/28 23:44:00;;;;;;;8.68;2.53;;;28.70;43.50;;;;;;20915497;28;20041;-58
2022/08/28 23:54:02;;;;;;;4.85;2.15;;;28.60;44.70;;;;;;20912402;28;20061;-58
